ZWWW/URC METAR and TAF weather

Enter ICAO airport designator
Station Type Date Time Source
ZWWW METAR 2021/03/02 16:30 UTC NOAA

ZWWW 021630Z 23002MPS 180V250 3000 FU NSC M08/M10 Q1019 NOSIG


Station Type Date Time Source
ZWWW Decoded METAR 2021/03/02 16:30 UTC NOAA

Urum-Qi / Diwopu, China (ZWWW) 43-54N 087-28E
Mar 02, 2021 - 11:30 AM EST / 2021.03.02 1630 UTC
Wind: from the SW (230 degrees) at 4 MPH (4 KT) (direction variable):0
Visibility: 1 mile(s):0
Weather: smoke
Temperature: 17 F (-8 C)
Dew Point: 14 F (-10 C)
Relative Humidity: 85%
Pressure (altimeter): 30.09 in. Hg (1019 hPa)
ob: ZWWW 021630Z 23002MPS 180V250 3000 FU NSC M08/M10 Q1019 NOSIG
cycle: 16

Station Type Date Time Source
ZWWW TAF 2021/03/02 18:03 UTC NOAA

TAF ZWWW 021503Z 0218/0318 16003MPS 3000 BR NSC TXM01/0309Z TNM13/0223Z
BECMG 0303/0304 33003MPS
BECMG 0313/0314 22003MPS -SN BR

Example: see airport list